Soederarm, Sweden

11:11 PM CEST on July 25, 2014 (GMT +0200)
Woods (IUPPLAND11) Elev 49 ft | 59.82 °N, 18.90 °E | Change Station

Current weather conditions updated 1 minute ago

Clear
Clear
63.1 °F
Feels Like 63.1 °F
N
0.0
Wind Variable Wind from SE
Gusts 0.0 mph

Tomorrow is forecast to be Much Cooler than today.

Today
High -- | Low -- °F
--% Chance of Precip.
Yesterday
High -- | Low -- °F
Precip. -- in
4:08 AM 9:27 PM
Waning Crescent, 1% visible
Pressure 30.15 in
Visibility -9999.0 miles
Clouds
Dew Point 56 °F
Humidity 79%
Rainfall 0.00 in
Snow Depth Not available.
UV Not available.
Pollen Not available.
Air Quality Not available.
Flu Activity Not available.
METAR EFMA 252050Z AUTO 35003KT CAVOK 17/15 Q1021

More Conditions Fewer Conditions

Pressure 30.15 in
Visibility -9999.0 miles
Clouds
Dew Point 56 °F
Humidity 79%
Rainfall 0.00 in
Snow Depth Not available.
UV Not available.
Pollen Not available.
Air Quality Not available.
Flu Activity Not available.
METAR EFMA 252050Z AUTO 35003KT CAVOK 17/15 Q1021

More Conditions Fewer Conditions

10-Day Weather Forecast

Almanac

Astronomy

Jul. 25, 2014 Rise Set
Actual Time 4:08 AM CEST 9:27 PM CEST
Civil Twilight 3:02 AM CEST 10:32 PM CEST
Nautical Twilight 1:21 AM CEST 12:16 AM CEST
Astronomical Twilight Sun does not rise Sun does not rise
Moon 3:02 AM CEST 7:56 PM CEST
Length of Visible Light 19h 29m
Length of Day
17h 19m
Tomorrow will be 4m 25s shorter.
Waning Crescent, 1% of the Moon is Illuminated
Today
Waning Crescent
Jul 26
New
Aug 3
First Quarter
Aug 10
Full
Aug 17
Last Quarter

Today's Extremes

Country Highs Country Lows

Community

WunderPhotos

Upload Photos

1,737,402 photos uploaded!

Nearby

Snow Depth

Not available.

Earthquake Activity

City Distance Mag. Time & Date
No recent earthquake activity has been reported nearby.
Minimum magnitude displayed is 2.5.

Coastal Water Temperatures

Place Temperature
No Stations Reporting

Nearby Weather Stations

Station Location Temp. Dew Point Humidity Wind Precip. Elev Updated Type
Woods, Norrtälje 63.1 °F 56 °F 79% SE  at  0.0 mph 0.00 in / hr 49 ft 11:09 PM CEST Rapid Fire

Show More Stations Show Fewer Stations